Time;durP1;ratioP1;P1;durP2;ratioP2;P2;SDS_P1;SDS_P2;PMS_P1;PMS_P2;Temp;Humidity;BMP_temperature;BMP_pressure;BME280_temperature;BME280_humidity;BME280_pressure;Samples;Min_cycle;Max_cycle;Signal;HPM_P1;HPM_P2
2022/02/24 00:01:11;;;;;;;5.28;3.60;;;;;;;1.72;100.00;96242.84;5010575;28;24423;-73
2022/02/24 00:03:38;;;;;;;4.00;3.10;;;;;;;1.63;100.00;96246.41;5010768;28;24478;-73
2022/02/24 00:06:05;;;;;;;4.70;2.90;;;;;;;1.60;100.00;96241.38;5010640;28;24436;-73
2022/02/24 00:08:36;;;;;;;3.55;3.00;;;;;;;1.63;100.00;96243.84;5010598;28;24443;-73
2022/02/24 00:11:03;;;;;;;3.10;2.67;;;;;;;1.65;100.00;96237.84;5010594;28;24459;-73
2022/02/24 00:13:29;;;;;;;4.07;3.10;;;;;;;1.79;100.00;96240.13;5010680;28;24478;-73
2022/02/24 00:15:56;;;;;;;4.60;3.20;;;;;;;1.80;100.00;96238.41;5010596;28;24814;-73
2022/02/24 00:18:22;;;;;;;4.55;2.95;;;;;;;1.89;100.00;96243.31;5010329;28;24428;-73
2022/02/24 00:20:50;;;;;;;7.50;3.92;;;;;;;2.06;100.00;96243.78;5010514;28;24432;-73
2022/02/24 00:23:16;;;;;;;6.10;4.00;;;;;;;1.96;100.00;96244.03;5010477;28;24961;-73
2022/02/24 00:25:43;;;;;;;5.97;4.40;;;;;;;1.98;100.00;96232.91;5010668;28;24425;-73
2022/02/24 00:28:09;;;;;;;7.18;4.10;;;;;;;1.84;100.00;96233.19;5010368;28;24467;-72
2022/02/24 00:30:36;;;;;;;8.30;3.78;;;;;;;1.80;100.00;96235.84;5010669;28;24480;-73
2022/02/24 00:33:02;;;;;;;4.07;3.15;;;;;;;1.90;100.00;96237.34;5010307;28;24471;-73
2022/02/24 00:35:29;;;;;;;5.70;3.72;;;;;;;1.94;100.00;96236.41;5029608;28;24497;-73
2022/02/24 00:37:56;;;;;;;4.40;3.75;;;;;;;1.80;100.00;96233.31;5030053;28;24416;-73
2022/02/24 00:40:23;;;;;;;4.90;3.30;;;;;;;1.93;100.00;96230.47;5030307;28;24786;-73
2022/02/24 00:42:49;;;;;;;3.72;2.97;;;;;;;1.85;100.00;96239.13;5025235;28;24432;-73
2022/02/24 00:45:16;;;;;;;11.05;3.60;;;;;;;1.81;100.00;96229.88;5019864;28;24838;-73
2022/02/24 00:47:42;;;;;;;3.95;3.30;;;;;;;1.69;100.00;96226.69;5023668;28;25014;-73
2022/02/24 00:50:09;;;;;;;3.55;2.88;;;;;;;1.73;100.00;96229.19;5025313;28;24493;-73
2022/02/24 00:52:36;;;;;;;3.10;2.80;;;;;;;1.77;100.00;96223.16;5033560;28;24435;-73
2022/02/24 00:55:04;;;;;;;7.45;4.93;;;;;;;1.87;100.00;96222.09;5033397;28;24420;-73
2022/02/24 00:57:31;;;;;;;6.53;4.90;;;;;;;1.74;100.00;96223.19;5033487;28;24420;-73
2022/02/24 00:59:57;;;;;;;9.93;5.32;;;;;;;1.48;100.00;96210.97;5033620;28;24420;-73
2022/02/24 01:02:24;;;;;;;7.95;4.95;;;;;;;1.49;100.00;96215.22;5033494;28;24832;-73
2022/02/24 01:04:50;;;;;;;10.02;6.00;;;;;;;1.45;100.00;96217.00;5033471;28;24817;-73
2022/02/24 01:07:16;;;;;;;7.80;4.85;;;;;;;1.47;100.00;96210.13;5032639;28;24436;-73
2022/02/24 01:09:43;;;;;;;12.52;5.30;;;;;;;1.38;100.00;96206.06;5033382;28;24428;-73
2022/02/24 01:12:11;;;;;;;7.45;5.90;;;;;;;1.33;100.00;96210.41;5033392;28;24428;-72
2022/02/24 01:14:38;;;;;;;11.40;5.22;;;;;;;1.44;100.00;96200.81;5033153;28;24953;-72
2022/02/24 01:17:04;;;;;;;7.43;4.75;;;;;;;1.50;100.00;96199.03;5032861;28;24949;-73
2022/02/24 01:19:31;;;;;;;5.60;4.43;;;;;;;1.58;100.00;96192.06;5033151;28;24790;-73
2022/02/24 01:21:57;;;;;;;7.65;4.72;;;;;;;1.60;100.00;96198.81;5032888;28;24485;-73
2022/02/24 01:24:24;;;;;;;7.53;4.75;;;;;;;1.61;100.00;96205.59;5033199;28;24423;-73
2022/02/24 01:26:50;;;;;;;10.38;3.95;;;;;;;1.34;100.00;96199.34;5032817;28;24423;-71
2022/02/24 01:29:18;;;;;;;4.93;3.28;;;;;;;1.08;100.00;96196.47;5033117;28;24423;-73
2022/02/24 01:31:44;;;;;;;5.07;3.00;;;;;;;1.09;100.00;96193.03;5025293;28;24436;-73
2022/02/24 01:34:11;;;;;;;3.28;2.85;;;;;;;1.20;100.00;96194.50;5032254;28;24965;-73
2022/02/24 01:36:37;;;;;;;5.43;3.30;;;;;;;1.31;100.00;96184.09;5032668;28;24420;-73
2022/02/24 01:39:04;;;;;;;3.20;2.90;;;;;;;1.28;100.00;96185.88;5032836;28;24466;-73
2022/02/24 01:41:31;;;;;;;4.47;3.10;;;;;;;1.30;100.00;96189.22;5032771;28;24444;-73
2022/02/24 01:44:06;;;;;;;4.45;2.75;;;;;;;1.29;100.00;96175.59;5032563;28;24833;-73
2022/02/24 01:46:35;;;;;;;4.72;2.75;;;;;;;1.35;100.00;96177.22;5032498;28;24941;-73
2022/02/24 01:49:01;;;;;;;2.58;2.38;;;;;;;1.40;100.00;96170.28;5032410;28;24526;-73
2022/02/24 01:51:28;;;;;;;4.43;2.55;;;;;;;1.46;100.00;96159.97;5032789;28;24430;-72
2022/02/24 01:53:54;;;;;;;4.03;2.53;;;;;;;1.41;100.00;96154.97;5032745;28;24428;-72
2022/02/24 01:56:21;;;;;;;6.30;3.00;;;;;;;1.28;100.00;96162.91;5032047;28;24506;-73
2022/02/24 01:58:48;;;;;;;3.00;2.40;;;;;;;1.06;100.00;96148.00;5032492;28;24423;-72
2022/02/24 02:01:15;;;;;;;4.97;2.42;;;;;;;1.09;100.00;96149.66;5032627;28;24462;-72
2022/02/24 02:03:44;;;;;;;3.53;2.50;;;;;;;0.98;100.00;96139.66;5032476;28;24434;-72
2022/02/24 02:06:11;;;;;;;4.63;2.38;;;;;;;1.11;100.00;96135.16;5032410;28;24423;-72
2022/02/24 02:08:37;;;;;;;3.03;2.40;;;;;;;1.05;100.00;96135.28;5032334;28;24443;-72
2022/02/24 02:11:05;;;;;;;2.55;2.17;;;;;;;1.18;100.00;96129.91;5032446;28;24474;-72
2022/02/24 02:13:33;;;;;;;2.63;2.33;;;;;;;1.12;100.00;96126.66;5032323;28;24478;-73
2022/02/24 02:16:00;;;;;;;3.78;2.63;;;;;;;1.03;100.00;96122.56;5031987;28;25042;-72
2022/02/24 02:18:26;;;;;;;2.75;2.42;;;;;;;1.19;100.00;96115.47;5032172;28;24427;-73
2022/02/24 02:20:54;;;;;;;2.35;2.10;;;;;;;1.17;100.00;96112.09;5031996;28;25011;-72
2022/02/24 02:23:21;;;;;;;3.28;2.15;;;;;;;1.15;100.00;96103.59;5032150;28;24424;-72
2022/02/24 02:25:47;;;;;;;2.97;2.15;;;;;;;1.27;100.00;96107.66;5031946;28;24416;-72
2022/02/24 02:28:15;;;;;;;2.72;2.25;;;;;;;1.34;100.00;96102.38;5031675;28;24806;-72
2022/02/24 02:30:41;;;;;;;5.03;2.75;;;;;;;1.65;100.00;96099.13;5032013;28;24436;-72
2022/02/24 02:33:08;;;;;;;4.57;3.08;;;;;;;1.74;100.00;96098.91;5031618;28;24424;-74
2022/02/24 02:35:35;;;;;;;3.27;2.73;;;;;;;1.79;100.00;96101.38;5031901;28;24503;-72
2022/02/24 02:38:03;;;;;;;4.18;3.05;;;;;;;1.77;100.00;96095.47;5031538;28;24463;-73
2022/02/24 02:40:30;;;;;;;3.50;2.80;;;;;;;1.55;100.00;96095.94;5031904;28;24482;-72
2022/02/24 02:42:57;;;;;;;3.05;2.25;;;;;;;1.56;100.00;96086.56;5031063;28;24478;-72
2022/02/24 02:45:23;;;;;;;4.70;2.60;;;;;;;1.50;100.00;96097.78;5022092;28;24494;-73
2022/02/24 02:47:50;;;;;;;3.92;2.53;;;;;;;1.42;100.00;96097.09;5031482;28;24451;-72
2022/02/24 02:50:16;;;;;;;3.45;2.50;;;;;;;1.45;100.00;96082.56;5031610;28;24502;-72
2022/02/24 02:52:43;;;;;;;4.78;2.50;;;;;;;1.47;100.00;96086.78;5031378;28;24447;-73
2022/02/24 02:55:12;;;;;;;3.35;2.67;;;;;;;1.45;100.00;96087.66;5031177;28;24961;-72
2022/02/24 02:57:39;;;;;;;2.80;2.50;;;;;;;1.50;100.00;96087.56;5031416;28;24436;-73
2022/02/24 03:00:08;;;;;;;3.45;2.72;;;;;;;1.54;100.00;96071.28;5031529;28;24435;-72
2022/02/24 03:02:34;;;;;;;4.17;2.63;;;;;;;1.64;100.00;96072.78;5031164;28;25019;-72
2022/02/24 03:05:01;;;;;;;2.90;2.60;;;;;;;1.62;100.00;96066.84;5031357;28;24465;-73
2022/02/24 03:07:27;;;;;;;4.10;2.50;;;;;;;1.62;100.00;96071.13;5031057;28;24432;-72
2022/02/24 03:09:54;;;;;;;4.88;2.70;;;;;;;1.68;100.00;96066.72;5030513;28;24489;-72
2022/02/24 03:12:22;;;;;;;5.25;2.75;;;;;;;1.73;100.00;96068.31;5031277;28;24431;-72
2022/02/24 03:14:48;;;;;;;3.67;2.30;;;;;;;1.76;100.00;96069.09;5031314;28;24424;-72
2022/02/24 03:17:16;;;;;;;7.13;2.45;;;;;;;1.80;100.00;96057.94;5031065;28;24427;-73
2022/02/24 03:19:42;;;;;;;2.95;2.58;;;;;;;1.86;100.00;96051.84;5015842;28;24524;-72
2022/02/24 03:22:10;;;;;;;3.40;2.60;;;;;;;1.90;100.00;96056.84;5011132;28;24790;-72
2022/02/24 03:24:37;;;;;;;3.78;2.60;;;;;;;1.93;100.00;96059.31;5011165;28;24962;-73
2022/02/24 03:27:04;;;;;;;2.72;2.35;;;;;;;1.78;100.00;96051.16;5010905;28;24416;-74
2022/02/24 03:29:33;;;;;;;3.97;2.17;;;;;;;1.63;100.00;96048.13;5011048;28;24969;-72
2022/02/24 03:32:00;;;;;;;3.58;2.28;;;;;;;1.66;100.00;96039.53;5011086;28;24445;-72
2022/02/24 03:34:27;;;;;;;3.45;2.15;;;;;;;1.58;100.00;96039.72;5011244;28;24421;-72
2022/02/24 03:36:53;;;;;;;2.50;1.90;;;;;;;1.66;100.00;96040.38;5011080;28;24451;-72
2022/02/24 03:39:20;;;;;;;3.28;2.00;;;;;;;1.73;100.00;96035.13;5011296;28;24443;-74
2022/02/24 03:41:46;;;;;;;2.65;2.22;;;;;;;1.82;100.00;96029.81;5010872;28;24436;-73
2022/02/24 03:44:12;;;;;;;4.15;3.20;;;;;;;1.78;100.00;96033.28;5010913;28;24996;-72
2022/02/24 03:46:40;;;;;;;3.40;2.92;;;;;;;1.72;100.00;96030.91;5051876;23;24876;-74
2022/02/24 03:49:07;;;;;;;5.15;2.30;;;;;;;1.72;100.00;96020.69;5030209;28;24456;-74
2022/02/24 03:51:33;;;;;;;2.78;2.17;;;;;;;1.73;100.00;96027.47;5030455;28;24932;-74
2022/02/24 03:54:00;;;;;;;2.85;2.15;;;;;;;1.59;100.00;96018.41;5030329;28;24458;-74
2022/02/24 03:56:27;;;;;;;3.47;2.28;;;;;;;1.42;100.00;96023.09;5036461;28;24477;-74
2022/02/24 03:58:53;;;;;;;3.83;2.25;;;;;;;1.37;100.00;96013.00;5050471;28;24423;-74
2022/02/24 04:01:19;;;;;;;3.87;2.27;;;;;;;1.29;100.00;96022.50;5050591;28;24420;-74
2022/02/24 04:03:47;;;;;;;3.22;2.50;;;;;;;1.01;100.00;96024.84;5050345;28;24515;-75
2022/02/24 04:06:14;;;;;;;3.80;2.40;;;;;;;0.83;100.00;96022.69;5050476;28;24430;-74
2022/02/24 04:08:41;;;;;;;3.30;2.58;;;;;;;0.69;100.00;96013.59;5049915;28;24976;-74
2022/02/24 04:11:07;;;;;;;3.58;2.50;;;;;;;0.60;100.00;96016.34;5050501;28;24831;-74
2022/02/24 04:13:34;;;;;;;5.00;2.55;;;;;;;0.58;100.00;96012.97;5050079;28;25018;-74
2022/02/24 04:16:00;;;;;;;3.22;2.60;;;;;;;0.60;100.00;96008.69;5050121;28;24411;-74
2022/02/24 04:18:27;;;;;;;3.55;2.50;;;;;;;0.61;100.00;96004.44;5049893;28;24476;-74
2022/02/24 04:20:55;;;;;;;2.90;2.40;;;;;;;0.64;100.00;95997.56;5052658;28;25026;-74
2022/02/24 04:23:21;;;;;;;2.22;2.03;;;;;;;0.75;100.00;96004.16;5054270;28;24419;-74
2022/02/24 04:25:47;;;;;;;2.92;2.28;;;;;;;0.84;100.00;96003.94;5054225;28;24780;-74
2022/02/24 04:28:14;;;;;;;3.60;2.33;;;;;;;0.93;100.00;95991.03;5053710;28;25022;-74
2022/02/24 04:30:40;;;;;;;3.40;2.30;;;;;;;1.00;100.00;95989.16;5054170;28;24473;-74
2022/02/24 04:33:07;;;;;;;2.47;2.28;;;;;;;1.00;100.00;95981.50;5054221;28;24435;-74
2022/02/24 04:35:33;;;;;;;5.03;2.60;;;;;;;0.99;100.00;95983.22;5054070;28;24823;-74
2022/02/24 04:38:01;;;;;;;2.63;2.25;;;;;;;1.09;100.00;95977.06;5053571;28;25002;-74
2022/02/24 04:40:27;;;;;;;3.60;2.28;;;;;;;1.14;100.00;95971.84;5053978;28;24422;-74
2022/02/24 04:42:54;;;;;;;4.38;2.33;;;;;;;1.21;100.00;95964.00;5053980;28;24419;-74
2022/02/24 04:45:21;;;;;;;2.55;1.88;;;;;;;1.35;100.00;95961.13;5053901;28;24427;-74
2022/02/24 04:47:47;;;;;;;2.93;2.07;;;;;;;1.43;100.00;95958.41;5053093;28;25026;-74
2022/02/24 04:50:14;;;;;;;2.80;1.90;;;;;;;1.44;100.00;95952.41;5053849;28;24555;-74
2022/02/24 04:52:41;;;;;;;2.33;1.90;;;;;;;1.41;100.00;95949.97;5053831;28;24438;-74
2022/02/24 04:55:10;;;;;;;2.25;2.00;;;;;;;1.49;100.00;95954.88;5053728;28;24429;-74
2022/02/24 04:57:37;;;;;;;2.90;1.98;;;;;;;1.45;100.00;95947.28;5053259;28;24840;-74
2022/02/24 05:00:05;;;;;;;6.83;2.07;;;;;;;1.40;100.00;95948.25;5053447;28;24483;-74
2022/02/24 05:02:31;;;;;;;3.00;2.10;;;;;;;1.34;100.00;95940.78;5053364;28;24465;-74
2022/02/24 05:04:58;;;;;;;3.10;2.38;;;;;;;1.29;100.00;95935.75;5053623;28;24473;-74
2022/02/24 05:07:24;;;;;;;2.58;2.30;;;;;;;1.43;100.00;95936.28;5053629;28;24432;-74
2022/02/24 05:09:51;;;;;;;2.58;2.17;;;;;;;1.29;100.00;95942.56;5053636;28;24452;-74
2022/02/24 05:12:18;;;;;;;3.42;2.70;;;;;;;1.14;100.00;95933.56;5053315;28;24481;-73
2022/02/24 05:14:45;;;;;;;2.73;2.30;;;;;;;1.05;100.00;95937.19;5053250;28;24427;-74
2022/02/24 05:17:11;;;;;;;3.55;2.20;;;;;;;1.00;100.00;95933.03;5052951;28;24426;-74
2022/02/24 05:19:38;;;;;;;2.33;1.90;;;;;;;0.99;100.00;95931.38;5053002;28;24415;-74
2022/02/24 05:22:04;;;;;;;2.47;1.90;;;;;;;1.12;100.00;95927.69;5053474;28;24411;-74
2022/02/24 05:24:31;;;;;;;2.70;1.90;;;;;;;1.23;100.00;95917.22;5050776;28;24432;-74
2022/02/24 05:26:57;;;;;;;3.20;1.95;;;;;;;1.17;100.00;95919.03;5052591;28;24439;-73
2022/02/24 05:29:25;;;;;;;4.18;2.00;;;;;;;1.18;100.00;95923.25;5053016;28;24446;-74
2022/02/24 05:31:51;;;;;;;3.63;2.13;;;;;;;1.21;100.00;95924.91;5052029;28;24481;-74
2022/02/24 05:34:18;;;;;;;2.00;1.80;;;;;;;1.15;100.00;95910.59;5053004;28;24423;-74
2022/02/24 05:36:44;;;;;;;5.68;2.30;;;;;;;1.01;100.00;95919.44;5052867;28;24438;-74
2022/02/24 05:39:11;;;;;;;3.47;2.40;;;;;;;0.86;100.00;95913.81;5052658;28;24428;-74
2022/02/24 05:41:37;;;;;;;3.55;2.35;;;;;;;0.83;100.00;95907.94;5052784;28;24432;-74
2022/02/24 05:44:05;;;;;;;4.85;2.35;;;;;;;0.82;100.00;95903.72;5052485;28;24431;-74
2022/02/24 05:46:33;;;;;;;4.15;2.22;;;;;;;0.82;100.00;95903.72;5052098;28;24427;-74
2022/02/24 05:48:59;;;;;;;3.00;2.17;;;;;;;0.85;100.00;95901.91;5052531;28;24513;-74
2022/02/24 05:51:26;;;;;;;3.47;1.92;;;;;;;0.86;100.00;95905.34;5052600;28;24480;-74
2022/02/24 05:53:52;;;;;;;3.63;2.38;;;;;;;0.72;100.00;95901.38;5052516;28;24473;-75
2022/02/24 05:56:19;;;;;;;3.90;2.45;;;;;;;0.73;100.00;95897.94;5052543;28;24438;-75
2022/02/24 05:58:45;;;;;;;3.63;2.83;;;;;;;0.71;100.00;95896.31;5052266;28;24430;-74
2022/02/24 06:01:11;;;;;;;2.58;2.10;;;;;;;0.66;100.00;95904.03;5052394;28;24978;-75
2022/02/24 06:03:39;;;;;;;3.47;2.35;;;;;;;0.66;100.00;95900.66;5052494;28;24422;-73
2022/02/24 06:06:06;;;;;;;2.80;2.42;;;;;;;0.65;100.00;95907.47;5052000;28;24457;-73
2022/02/24 06:08:32;;;;;;;3.25;2.15;;;;;;;0.66;100.00;95910.84;5051364;28;24443;-72
2022/02/24 06:10:58;;;;;;;3.92;2.20;;;;;;;0.66;100.00;95914.25;5049384;28;25010;-74
2022/02/24 06:13:26;;;;;;;2.50;1.97;;;;;;;0.66;100.00;95914.25;5051279;28;24432;-74
2022/02/24 06:15:53;;;;;;;2.97;2.38;;;;;;;0.69;100.00;95914.19;5050563;28;24446;-74
2022/02/24 06:18:19;;;;;;;3.53;2.10;;;;;;;0.78;100.00;95905.50;5051071;28;24434;-74
2022/02/24 06:20:47;;;;;;;3.78;2.15;;;;;;;0.88;100.00;95901.03;5051901;28;24443;-74
2022/02/24 06:23:15;;;;;;;3.08;2.10;;;;;;;0.90;100.00;95906.94;5051619;28;24489;-74
2022/02/24 06:25:42;;;;;;;3.67;2.30;;;;;;;0.89;100.00;95901.00;5051556;28;24437;-74
2022/02/24 06:28:08;;;;;;;2.22;2.00;;;;;;;0.98;100.00;95899.94;5051227;28;24419;-73
2022/02/24 06:30:35;;;;;;;2.92;1.90;;;;;;;1.12;100.00;95907.28;5051198;28;24813;-73
2022/02/24 06:33:02;;;;;;;3.00;2.50;;;;;;;1.23;100.00;95907.03;5051650;28;24435;-74
2022/02/24 06:35:28;;;;;;;3.03;2.15;;;;;;;1.35;100.00;95893.97;5051474;28;24484;-74
2022/02/24 06:37:56;;;;;;;3.65;2.28;;;;;;;1.38;100.00;95893.91;5051157;28;24828;-74
2022/02/24 06:40:23;;;;;;;4.88;2.55;;;;;;;1.29;100.00;95891.56;5051482;28;24430;-74
2022/02/24 06:42:49;;;;;;;5.78;3.58;;;;;;;1.21;100.00;95895.13;5051525;28;24473;-74
2022/02/24 06:45:15;;;;;;;3.03;2.72;;;;;;;1.27;100.00;95886.50;5051455;28;24423;-74
2022/02/24 06:47:42;;;;;;;3.45;2.72;;;;;;;1.23;100.00;95878.97;5051041;28;24828;-74
2022/02/24 06:50:11;;;;;;;4.75;2.78;;;;;;;1.22;100.00;95880.66;5051344;28;24504;-73
2022/02/24 06:52:37;;;;;;;6.47;4.60;;;;;;;1.11;100.00;95870.72;5051249;28;24427;-73
2022/02/24 06:55:06;;;;;;;4.70;3.50;;;;;;;1.12;100.00;95871.56;5050886;28;24785;-74
2022/02/24 06:57:37;;;;;;;4.38;2.60;;;;;;;1.18;100.00;95871.41;5050253;28;24446;-74
2022/02/24 07:00:05;;;;;;;4.88;2.75;;;;;;;1.33;100.00;95873.56;5050524;28;24836;-75
2022/02/24 07:02:32;;;;;;;3.45;2.30;;;;;;;1.39;100.00;95872.59;5050932;28;24431;-74
2022/02/24 07:04:58;;;;;;;5.10;3.05;;;;;;;1.31;100.00;95871.94;5051715;28;24438;-74
2022/02/24 07:07:25;;;;;;;4.82;2.80;;;;;;;1.12;100.00;95881.78;5050675;28;24423;-74
2022/02/24 07:09:51;;;;;;;3.78;3.10;;;;;;;1.04;100.00;95871.75;5051207;28;24530;-74
2022/02/24 07:12:19;;;;;;;5.75;2.60;;;;;;;1.16;100.00;95868.06;5051098;28;24426;-76
2022/02/24 07:14:45;;;;;;;5.43;2.67;;;;;;;1.37;100.00;95870.09;5050930;28;24489;-74
2022/02/24 07:17:12;;;;;;;3.70;2.55;;;;;;;1.37;100.00;95859.88;5050504;28;24439;-74
2022/02/24 07:19:38;;;;;;;3.00;2.35;;;;;;;1.33;100.00;95854.88;5050704;28;24975;-73
2022/02/24 07:22:05;;;;;;;2.20;2.00;;;;;;;1.29;100.00;95854.13;5048097;28;24489;-74
2022/02/24 07:24:31;;;;;;;3.10;2.40;;;;;;;1.37;100.00;95852.22;5050573;28;24430;-74
2022/02/24 07:26:58;;;;;;;4.63;2.38;;;;;;;1.41;100.00;95848.72;5050102;28;24493;-75
2022/02/24 07:29:25;;;;;;;3.97;2.20;;;;;;;1.44;100.00;95850.34;5049511;28;24530;-74
2022/02/24 07:31:52;;;;;;;2.33;2.13;;;;;;;1.54;100.00;95856.88;5050239;28;24955;-75
2022/02/24 07:34:18;;;;;;;4.85;2.45;;;;;;;1.56;100.00;95850.03;5050759;28;24427;-75
2022/02/24 07:36:45;;;;;;;4.25;2.22;;;;;;;1.58;100.00;95852.53;5050699;28;24427;-75
2022/02/24 07:39:12;;;;;;;3.58;2.45;;;;;;;1.73;100.00;95852.13;5049955;28;24465;-75
2022/02/24 07:41:39;;;;;;;3.40;2.15;;;;;;;1.86;100.00;95847.53;5050430;28;24538;-76
2022/02/24 07:44:07;;;;;;;6.05;2.97;;;;;;;1.94;100.00;95840.50;5050806;28;24458;-75
2022/02/24 07:46:35;;;;;;;3.43;2.90;;;;;;;2.09;100.00;95840.06;5050367;28;24534;-76
2022/02/24 07:49:02;;;;;;;5.05;3.13;;;;;;;2.35;100.00;95841.03;5049455;28;24439;-75
2022/02/24 07:51:29;;;;;;;4.53;3.13;;;;;;;2.45;100.00;95839.88;5050121;28;24437;-76
2022/02/24 07:53:55;;;;;;;3.58;2.70;;;;;;;2.58;100.00;95835.22;5050047;28;24964;-76
2022/02/24 07:56:22;;;;;;;4.40;2.65;;;;;;;2.91;100.00;95829.06;5032582;28;24443;-76
2022/02/24 07:58:49;;;;;;;3.17;2.70;;;;;;;3.26;100.00;95828.78;5036512;28;24473;-75
2022/02/24 08:01:17;;;;;;;4.20;2.80;;;;;;;3.50;100.00;95822.03;5050537;28;24427;-75
2022/02/24 08:03:45;;;;;;;6.07;2.97;;;;;;;3.74;100.00;95822.88;5049773;28;24431;-76
2022/02/24 08:06:11;;;;;;;5.00;2.53;;;;;;;3.82;100.00;95826.00;5050220;28;24438;-76
2022/02/24 08:08:37;;;;;;;5.93;2.80;;;;;;;3.95;100.00;95819.56;5049626;28;24439;-75
2022/02/24 08:11:04;;;;;;;3.17;2.30;;;;;;;4.18;100.00;95816.16;5050113;28;24517;-76
2022/02/24 08:13:30;;;;;;;3.03;2.20;;;;;;;4.13;100.00;95810.38;5050407;28;24808;-76
2022/02/24 08:15:57;;;;;;;7.25;2.53;;;;;;;4.42;100.00;95809.31;5050226;28;24423;-76
2022/02/24 08:18:23;;;;;;;3.35;2.65;;;;;;;4.61;100.00;95810.25;5049388;28;24423;-76
2022/02/24 08:20:51;;;;;;;2.47;1.85;;;;;;;4.94;100.00;95799.56;5050167;28;24422;-76
2022/02/24 08:23:18;;;;;;;3.65;2.35;;;;;;;5.20;100.00;95797.69;5049956;28;24525;-75
2022/02/24 08:25:45;;;;;;;3.75;2.28;;;;;;;5.42;100.00;95788.19;5050236;28;24429;-76
2022/02/24 08:28:12;;;;;;;4.70;2.33;;;;;;;5.17;100.00;95784.97;5049098;28;24805;-75
2022/02/24 08:30:38;;;;;;;3.00;2.60;;;;;;;5.19;100.00;95785.72;5031428;28;24505;-76
2022/02/24 08:33:05;;;;;;;4.45;3.03;;;;;;;4.69;100.00;95786.03;5041846;28;24489;-75
2022/02/24 08:35:33;;;;;;;5.93;3.53;;;;;;;4.55;100.00;95792.53;5049903;28;24536;-75
2022/02/24 08:38:01;;;;;;;3.75;2.85;;;;;;;4.43;100.00;95793.00;5049716;28;25176;-75
2022/02/24 08:40:28;;;;;;;3.20;2.60;;;;;;;4.47;100.00;95791.16;5050482;28;24435;-76
2022/02/24 08:42:55;;;;;;;3.97;3.47;;;;;;;4.84;100.00;95785.44;5050262;28;24514;-75
2022/02/24 08:45:22;;;;;;;3.67;2.75;;;;;;;4.87;100.00;95784.47;5050014;28;24419;-76
2022/02/24 08:47:49;;;;;;;5.03;2.45;;;;;;;5.12;100.00;95779.16;5039098;28;24440;-75
2022/02/24 08:50:16;;;;;;;6.03;2.55;;;;;;;5.40;100.00;95779.69;5048454;28;24460;-75
2022/02/24 08:52:42;;;;;;;4.28;2.90;;;;;;;5.47;100.00;95775.97;5049543;28;24434;-75
2022/02/24 08:55:10;;;;;;;4.33;2.57;;;;;;;5.54;100.00;95776.53;5049921;28;24426;-75
2022/02/24 08:57:37;;;;;;;5.20;2.78;;;;;;;5.56;100.00;95775.59;5049335;28;24435;-75
2022/02/24 09:00:06;;;;;;;5.37;2.97;;;;;;;5.51;100.00;95763.81;5035841;28;24851;-75
2022/02/24 09:02:33;;;;;;;4.90;2.90;;;;;;;5.46;100.00;95769.16;5029258;28;24435;-74
2022/02/24 09:04:59;;;;;;;5.10;3.03;;;;;;;5.34;100.00;95759.44;5030005;28;24447;-75
2022/02/24 09:07:26;;;;;;;4.65;2.40;;;;;;;5.33;100.00;95755.16;5031184;28;24424;-76
2022/02/24 09:09:52;;;;;;;2.67;2.25;;;;;;;5.54;100.00;95753.44;5048141;28;24459;-74
2022/02/24 09:12:20;;;;;;;6.28;2.80;;;;;;;5.41;100.00;95752.28;5058432;28;24984;-76
2022/02/24 09:14:46;;;;;;;3.00;2.33;;;;;;;5.40;100.00;95741.16;5069286;28;24975;-76
2022/02/24 09:17:13;;;;;;;5.55;2.83;;;;;;;5.49;100.00;95738.22;5055542;28;24442;-75
2022/02/24 09:19:40;;;;;;;5.07;2.90;;;;;;;5.65;100.00;95734.97;5052543;28;24481;-76
2022/02/24 09:22:06;;;;;;;4.80;2.92;;;;;;;5.63;100.00;95731.63;5052617;28;24423;-74
2022/02/24 09:24:33;;;;;;;4.82;3.08;;;;;;;5.65;100.00;95724.69;5052849;28;24419;-74
2022/02/24 09:26:59;;;;;;;5.95;3.70;;;;;;;5.63;100.00;95735.03;5051918;28;24516;-75
2022/02/24 09:29:28;;;;;;;5.88;3.63;;;;;;;5.74;100.00;95727.69;5051667;28;24434;-75
2022/02/24 09:31:54;;;;;;;9.02;3.90;;;;;;;5.84;100.00;95728.13;5039203;28;24442;-75
2022/02/24 09:34:21;;;;;;;7.78;3.65;;;;;;;5.92;100.00;95723.47;5052560;28;24941;-74
2022/02/24 09:36:47;;;;;;;9.05;4.30;;;;;;;6.01;100.00;95729.97;5052613;28;24972;-74
2022/02/24 09:39:14;;;;;;;5.32;3.22;;;;;;;6.06;100.00;95722.88;5051737;28;25054;-75
2022/02/24 09:41:40;;;;;;;8.55;4.82;;;;;;;6.20;100.00;95719.66;5051084;28;24516;-75
2022/02/24 09:44:07;;;;;;;7.15;4.22;;;;;;;6.28;100.00;95709.84;5031680;28;24562;-74
2022/02/24 09:46:36;;;;;;;5.28;3.17;;;;;;;6.50;100.00;95697.63;5032177;28;24424;-74
2022/02/24 09:49:04;;;;;;;4.45;3.10;;;;;;;6.69;100.00;95707.88;5038433;28;24569;-75
2022/02/24 09:51:31;;;;;;;5.80;3.08;;;;;;;6.75;100.00;95702.44;5046747;28;24894;-74
2022/02/24 09:53:59;;;;;;;3.55;2.60;;;;;;;7.00;100.00;95702.03;5032293;28;24523;-74
2022/02/24 09:56:29;;;;;;;4.78;3.55;;;;;;;6.98;100.00;95701.31;5049167;28;24986;-74
2022/02/24 09:58:57;;;;;;;4.07;2.97;;;;;;;7.08;100.00;95698.25;5050146;28;24488;-74
2022/02/24 10:01:24;;;;;;;3.88;2.67;;;;;;;7.23;100.00;95697.47;5052235;28;24473;-74
2022/02/24 10:03:57;;;;;;;9.60;3.95;;;;;;;7.35;100.00;95696.06;5052048;28;24427;-76
2022/02/24 10:06:35;;;;;;;4.90;2.67;;;;;;;7.45;100.00;95687.78;5043818;28;24497;-73
2022/02/24 10:09:01;;;;;;;3.75;2.10;;;;;;;7.73;100.00;95688.91;5049322;28;24855;-73
2022/02/24 10:11:28;;;;;;;3.55;2.55;;;;;;;7.81;100.00;95684.16;5045679;28;21141;-73
2022/02/24 10:14:05;;;;;;;5.88;2.60;;;;;;;7.75;100.00;95682.75;5051601;28;24530;-74
2022/02/24 10:16:33;;;;;;;4.00;2.72;;;;;;;7.68;100.00;95672.84;5051904;28;20645;-73
2022/02/24 10:19:13;;;;;;;6.80;2.22;;;;;;;7.66;100.00;95670.34;5045748;28;24574;-73
2022/02/24 10:21:39;;;;;;;3.75;2.13;;;;;;;7.82;100.00;95672.91;5045362;28;20806;-74
2022/02/24 10:24:22;;;;;;;4.35;2.58;;;;;;;7.80;100.00;95661.03;5052037;28;24522;-74
2022/02/24 10:26:49;;;;;;;4.13;2.40;;;;;;;7.99;100.00;95665.13;5051678;28;20810;-74
2022/02/24 10:29:16;;;;;;;4.13;2.08;;;;;;;8.01;100.00;95659.91;5051068;28;20767;-77
2022/02/24 10:31:43;;;;;;;3.35;2.00;;;;;;;8.06;99.69;95657.88;5066822;28;20828;-73
2022/02/24 10:34:12;;;;;;;8.57;2.40;;;;;;;8.24;99.25;95656.88;5050309;28;24435;-74
2022/02/24 10:36:39;;;;;;;11.52;2.00;;;;;;;8.35;98.81;95653.69;5047822;28;21188;-74
2022/02/24 10:39:08;;;;;;;3.70;1.77;;;;;;;8.70;96.01;95662.06;5047180;28;24435;-73
2022/02/24 10:41:36;;;;;;;5.20;1.90;;;;;;;8.96;97.29;95652.81;5051045;28;20775;-74
2022/02/24 10:44:15;;;;;;;3.40;2.10;;;;;;;9.05;93.58;95656.63;5049873;28;20809;-74
2022/02/24 10:46:43;;;;;;;3.45;1.90;;;;;;;9.12;92.38;95646.75;5048158;28;20710;-75
2022/02/24 10:49:10;;;;;;;6.30;2.00;;;;;;;9.19;92.14;95635.94;5050116;28;21377;-74
2022/02/24 10:51:38;;;;;;;3.30;1.50;;;;;;;9.28;92.26;95637.16;5046240;28;24913;-74
2022/02/24 10:54:06;;;;;;;2.63;1.40;;;;;;;9.42;89.90;95634.59;5051144;28;24431;-74
2022/02/24 10:56:34;;;;;;;3.90;1.50;;;;;;;9.58;88.54;95641.41;5050499;28;21371;-74
2022/02/24 10:59:00;;;;;;;3.00;1.50;;;;;;;9.80;87.96;95631.41;5050161;28;24438;-74
2022/02/24 11:01:29;;;;;;;3.10;1.60;;;;;;;9.86;86.78;95630.19;5050934;28;24435;-74
2022/02/24 11:03:57;;;;;;;6.55;1.60;;;;;;;9.86;87.18;95625.00;5054183;28;24442;-75
2022/02/24 11:06:26;;;;;;;3.03;1.63;;;;;;;9.79;87.89;95628.91;5050854;28;24494;-74
2022/02/24 11:08:55;;;;;;;3.20;1.80;;;;;;;9.86;88.60;95614.66;5050200;28;20794;-75
2022/02/24 11:11:23;;;;;;;4.40;1.67;;;;;;;9.89;87.59;95611.91;5050853;28;20779;-75
2022/02/24 11:13:51;;;;;;;2.65;1.35;;;;;;;9.82;87.75;95618.38;5045155;28;24527;-75
2022/02/24 11:16:18;;;;;;;2.72;1.20;;;;;;;9.78;81.62;95604.81;5050803;28;24998;-75
2022/02/24 11:18:45;;;;;;;3.83;1.55;;;;;;;9.80;83.27;95610.72;5039096;28;20771;-75
2022/02/24 11:21:13;;;;;;;5.80;1.40;;;;;;;9.85;82.94;95606.09;5049718;28;24466;-75
2022/02/24 11:23:40;;;;;;;2.40;1.40;;;;;;;9.88;80.17;95608.47;5042410;28;24436;-75
2022/02/24 11:26:27;;;;;;;3.45;1.40;;;;;;;9.90;75.58;95598.88;5050382;28;24836;-75
2022/02/24 11:29:02;;;;;;;3.28;1.80;;;;;;;9.95;73.69;95606.34;5049205;28;24895;-75
2022/02/24 11:31:36;;;;;;;8.17;1.40;;;;;;;10.01;72.54;95590.44;5050468;28;24504;-75
2022/02/24 11:34:02;;;;;;;1.95;1.20;;;;;;;10.04;71.24;95592.81;5030547;28;24415;-74